sensor_id;sensor_type;location;lat;lon;timestamp;P1;durP1;ratioP1;P2;durP2;ratioP2
16862;SDS011;52193;48.216;-1.698;2022-10-16T00:00:37;4.53;;;1.48;;
16862;SDS011;52193;48.216;-1.698;2022-10-16T00:03:06;4.05;;;1.60;;
16862;SDS011;52193;48.216;-1.698;2022-10-16T00:05:37;3.25;;;1.50;;
16862;SDS011;52193;48.216;-1.698;2022-10-16T00:08:05;3.40;;;1.70;;
16862;SDS011;52193;48.216;-1.698;2022-10-16T00:10:34;3.03;;;1.60;;
16862;SDS011;52193;48.216;-1.698;2022-10-16T00:13:01;2.30;;;1.57;;
16862;SDS011;52193;48.216;-1.698;2022-10-16T00:15:28;4.95;;;1.77;;
16862;SDS011;52193;48.216;-1.698;2022-10-16T00:17:55;3.83;;;1.75;;
16862;SDS011;52193;48.216;-1.698;2022-10-16T00:20:22;4.60;;;1.75;;
16862;SDS011;52193;48.216;-1.698;2022-10-16T00:22:49;3.47;;;1.80;;
16862;SDS011;52193;48.216;-1.698;2022-10-16T00:25:16;3.17;;;1.73;;
16862;SDS011;52193;48.216;-1.698;2022-10-16T00:27:44;2.90;;;1.73;;
16862;SDS011;52193;48.216;-1.698;2022-10-16T00:30:11;4.30;;;1.80;;
16862;SDS011;52193;48.216;-1.698;2022-10-16T00:32:38;4.93;;;1.90;;
16862;SDS011;52193;48.216;-1.698;2022-10-16T00:35:05;3.63;;;1.90;;
16862;SDS011;52193;48.216;-1.698;2022-10-16T00:37:32;6.13;;;2.05;;
16862;SDS011;52193;48.216;-1.698;2022-10-16T00:39:59;4.63;;;2.20;;
16862;SDS011;52193;48.216;-1.698;2022-10-16T00:42:26;4.45;;;2.05;;
16862;SDS011;52193;48.216;-1.698;2022-10-16T00:44:55;4.35;;;2.15;;
16862;SDS011;52193;48.216;-1.698;2022-10-16T00:47:24;4.07;;;2.00;;
16862;SDS011;52193;48.216;-1.698;2022-10-16T00:49:56;4.05;;;2.40;;
16862;SDS011;52193;48.216;-1.698;2022-10-16T00:52:27;6.82;;;2.60;;
16862;SDS011;52193;48.216;-1.698;2022-10-16T00:54:54;5.15;;;2.70;;
16862;SDS011;52193;48.216;-1.698;2022-10-16T00:57:23;4.63;;;2.90;;
16862;SDS011;52193;48.216;-1.698;2022-10-16T00:59:51;5.57;;;3.08;;
16862;SDS011;52193;48.216;-1.698;2022-10-16T01:02:19;5.05;;;2.90;;
16862;SDS011;52193;48.216;-1.698;2022-10-16T01:04:47;5.43;;;3.10;;
16862;SDS011;52193;48.216;-1.698;2022-10-16T01:07:20;6.27;;;3.20;;
16862;SDS011;52193;48.216;-1.698;2022-10-16T01:09:59;4.45;;;3.30;;
16862;SDS011;52193;48.216;-1.698;2022-10-16T01:12:36;4.03;;;3.30;;
16862;SDS011;52193;48.216;-1.698;2022-10-16T01:15:09;5.80;;;3.53;;
16862;SDS011;52193;48.216;-1.698;2022-10-16T01:17:43;5.20;;;3.53;;
16862;SDS011;52193;48.216;-1.698;2022-10-16T01:20:18;5.33;;;3.60;;
16862;SDS011;52193;48.216;-1.698;2022-10-16T01:23:03;4.43;;;3.35;;
16862;SDS011;52193;48.216;-1.698;2022-10-16T01:25:44;6.18;;;3.72;;
16862;SDS011;52193;48.216;-1.698;2022-10-16T01:28:24;4.30;;;3.88;;
16862;SDS011;52193;48.216;-1.698;2022-10-16T01:30:58;5.93;;;4.07;;
16862;SDS011;52193;48.216;-1.698;2022-10-16T01:33:26;8.43;;;4.10;;
16862;SDS011;52193;48.216;-1.698;2022-10-16T01:35:59;6.68;;;3.97;;
16862;SDS011;52193;48.216;-1.698;2022-10-16T01:38:30;6.00;;;4.22;;
16862;SDS011;52193;48.216;-1.698;2022-10-16T01:41:04;6.13;;;4.20;;
16862;SDS011;52193;48.216;-1.698;2022-10-16T01:43:37;7.32;;;4.35;;
16862;SDS011;52193;48.216;-1.698;2022-10-16T01:46:07;6.95;;;4.72;;
16862;SDS011;52193;48.216;-1.698;2022-10-16T01:48:36;5.70;;;4.80;;
16862;SDS011;52193;48.216;-1.698;2022-10-16T01:51:04;7.13;;;4.90;;
16862;SDS011;52193;48.216;-1.698;2022-10-16T01:53:35;6.35;;;5.22;;
16862;SDS011;52193;48.216;-1.698;2022-10-16T01:56:03;7.20;;;5.20;;
16862;SDS011;52193;48.216;-1.698;2022-10-16T01:58:34;6.00;;;5.40;;
16862;SDS011;52193;48.216;-1.698;2022-10-16T02:01:06;7.57;;;6.00;;
16862;SDS011;52193;48.216;-1.698;2022-10-16T02:03:37;6.55;;;5.75;;
16862;SDS011;52193;48.216;-1.698;2022-10-16T02:06:06;8.50;;;5.93;;
16862;SDS011;52193;48.216;-1.698;2022-10-16T02:08:34;8.95;;;5.95;;
16862;SDS011;52193;48.216;-1.698;2022-10-16T02:11:01;9.35;;;6.30;;
16862;SDS011;52193;48.216;-1.698;2022-10-16T02:13:30;6.82;;;6.13;;
16862;SDS011;52193;48.216;-1.698;2022-10-16T02:16:01;8.70;;;5.40;;
16862;SDS011;52193;48.216;-1.698;2022-10-16T02:18:28;6.95;;;5.00;;
16862;SDS011;52193;48.216;-1.698;2022-10-16T02:20:57;7.25;;;4.80;;
16862;SDS011;52193;48.216;-1.698;2022-10-16T02:23:29;6.03;;;4.75;;
16862;SDS011;52193;48.216;-1.698;2022-10-16T02:26:04;7.10;;;5.45;;
16862;SDS011;52193;48.216;-1.698;2022-10-16T02:28:36;9.27;;;5.15;;
16862;SDS011;52193;48.216;-1.698;2022-10-16T02:31:10;6.30;;;5.57;;
16862;SDS011;52193;48.216;-1.698;2022-10-16T02:33:38;7.90;;;5.15;;
16862;SDS011;52193;48.216;-1.698;2022-10-16T02:36:08;7.85;;;5.38;;
16862;SDS011;52193;48.216;-1.698;2022-10-16T02:38:35;8.60;;;5.13;;
16862;SDS011;52193;48.216;-1.698;2022-10-16T02:41:04;6.25;;;5.05;;
16862;SDS011;52193;48.216;-1.698;2022-10-16T02:43:31;7.20;;;5.47;;
16862;SDS011;52193;48.216;-1.698;2022-10-16T02:45:58;9.30;;;5.85;;
16862;SDS011;52193;48.216;-1.698;2022-10-16T02:48:27;7.70;;;5.25;;
16862;SDS011;52193;48.216;-1.698;2022-10-16T02:50:54;9.35;;;5.40;;
16862;SDS011;52193;48.216;-1.698;2022-10-16T02:53:22;7.20;;;4.97;;
16862;SDS011;52193;48.216;-1.698;2022-10-16T02:55:49;10.85;;;5.47;;
16862;SDS011;52193;48.216;-1.698;2022-10-16T02:58:16;5.78;;;4.90;;
16862;SDS011;52193;48.216;-1.698;2022-10-16T03:00:42;7.60;;;5.20;;
16862;SDS011;52193;48.216;-1.698;2022-10-16T03:03:09;7.38;;;5.07;;
16862;SDS011;52193;48.216;-1.698;2022-10-16T03:05:38;7.57;;;5.22;;
16862;SDS011;52193;48.216;-1.698;2022-10-16T03:08:05;9.25;;;5.28;;
16862;SDS011;52193;48.216;-1.698;2022-10-16T03:10:31;7.55;;;4.68;;
16862;SDS011;52193;48.216;-1.698;2022-10-16T03:12:58;8.13;;;4.90;;
16862;SDS011;52193;48.216;-1.698;2022-10-16T03:15:25;6.15;;;5.03;;
16862;SDS011;52193;48.216;-1.698;2022-10-16T03:17:53;5.93;;;4.55;;
16862;SDS011;52193;48.216;-1.698;2022-10-16T03:20:20;11.48;;;5.55;;
16862;SDS011;52193;48.216;-1.698;2022-10-16T03:22:48;7.90;;;5.40;;
16862;SDS011;52193;48.216;-1.698;2022-10-16T03:25:15;8.75;;;5.57;;
16862;SDS011;52193;48.216;-1.698;2022-10-16T03:27:42;11.00;;;5.53;;
16862;SDS011;52193;48.216;-1.698;2022-10-16T03:30:09;5.65;;;5.10;;
16862;SDS011;52193;48.216;-1.698;2022-10-16T03:32:37;6.10;;;4.88;;
16862;SDS011;52193;48.216;-1.698;2022-10-16T03:35:04;8.15;;;5.30;;
16862;SDS011;52193;48.216;-1.698;2022-10-16T03:37:32;6.32;;;5.43;;
16862;SDS011;52193;48.216;-1.698;2022-10-16T03:40:00;6.50;;;5.40;;
16862;SDS011;52193;48.216;-1.698;2022-10-16T03:42:27;7.35;;;5.68;;
16862;SDS011;52193;48.216;-1.698;2022-10-16T03:44:54;8.25;;;5.70;;
16862;SDS011;52193;48.216;-1.698;2022-10-16T03:47:21;7.00;;;5.68;;
16862;SDS011;52193;48.216;-1.698;2022-10-16T03:49:48;8.63;;;5.88;;
16862;SDS011;52193;48.216;-1.698;2022-10-16T03:52:16;6.03;;;5.43;;
16862;SDS011;52193;48.216;-1.698;2022-10-16T03:54:43;7.88;;;5.60;;
16862;SDS011;52193;48.216;-1.698;2022-10-16T03:57:11;6.05;;;5.53;;
16862;SDS011;52193;48.216;-1.698;2022-10-16T03:59:38;9.53;;;6.00;;
16862;SDS011;52193;48.216;-1.698;2022-10-16T04:02:05;9.65;;;6.22;;
16862;SDS011;52193;48.216;-1.698;2022-10-16T04:04:32;8.52;;;6.18;;
16862;SDS011;52193;48.216;-1.698;2022-10-16T04:06:59;8.30;;;6.00;;
16862;SDS011;52193;48.216;-1.698;2022-10-16T04:09:26;16.27;;;5.90;;
16862;SDS011;52193;48.216;-1.698;2022-10-16T04:11:53;12.80;;;5.97;;
16862;SDS011;52193;48.216;-1.698;2022-10-16T04:14:21;11.70;;;6.20;;
16862;SDS011;52193;48.216;-1.698;2022-10-16T04:16:48;11.13;;;6.15;;
16862;SDS011;52193;48.216;-1.698;2022-10-16T04:19:15;7.75;;;5.75;;
16862;SDS011;52193;48.216;-1.698;2022-10-16T04:21:42;9.95;;;5.90;;
16862;SDS011;52193;48.216;-1.698;2022-10-16T04:24:09;20.07;;;6.30;;
16862;SDS011;52193;48.216;-1.698;2022-10-16T04:26:36;12.88;;;5.97;;
16862;SDS011;52193;48.216;-1.698;2022-10-16T04:29:03;15.77;;;6.10;;
16862;SDS011;52193;48.216;-1.698;2022-10-16T04:31:32;60.15;;;7.10;;
16862;SDS011;52193;48.216;-1.698;2022-10-16T04:33:59;20.38;;;6.50;;
16862;SDS011;52193;48.216;-1.698;2022-10-16T04:36:26;24.73;;;6.87;;
16862;SDS011;52193;48.216;-1.698;2022-10-16T04:38:53;8.40;;;6.30;;
16862;SDS011;52193;48.216;-1.698;2022-10-16T04:41:20;12.13;;;6.38;;
16862;SDS011;52193;48.216;-1.698;2022-10-16T04:43:47;21.58;;;6.95;;
16862;SDS011;52193;48.216;-1.698;2022-10-16T04:46:14;6.95;;;6.25;;
16862;SDS011;52193;48.216;-1.698;2022-10-16T04:48:42;10.45;;;6.47;;
16862;SDS011;52193;48.216;-1.698;2022-10-16T04:51:09;14.00;;;6.22;;
16862;SDS011;52193;48.216;-1.698;2022-10-16T04:53:36;19.75;;;6.43;;
16862;SDS011;52193;48.216;-1.698;2022-10-16T04:56:03;41.75;;;6.63;;
16862;SDS011;52193;48.216;-1.698;2022-10-16T04:58:30;45.45;;;7.10;;
16862;SDS011;52193;48.216;-1.698;2022-10-16T05:00:58;10.35;;;6.40;;
16862;SDS011;52193;48.216;-1.698;2022-10-16T05:03:25;10.50;;;7.15;;
16862;SDS011;52193;48.216;-1.698;2022-10-16T05:05:53;9.95;;;7.18;;
16862;SDS011;52193;48.216;-1.698;2022-10-16T05:08:20;8.73;;;7.10;;
16862;SDS011;52193;48.216;-1.698;2022-10-16T05:10:47;21.27;;;7.80;;
16862;SDS011;52193;48.216;-1.698;2022-10-16T05:13:14;18.25;;;7.93;;
16862;SDS011;52193;48.216;-1.698;2022-10-16T05:15:41;21.45;;;8.15;;
16862;SDS011;52193;48.216;-1.698;2022-10-16T05:18:08;8.30;;;7.47;;
16862;SDS011;52193;48.216;-1.698;2022-10-16T05:20:35;9.20;;;8.30;;
16862;SDS011;52193;48.216;-1.698;2022-10-16T05:23:03;9.57;;;8.05;;
16862;SDS011;52193;48.216;-1.698;2022-10-16T05:25:30;11.68;;;8.20;;
16862;SDS011;52193;48.216;-1.698;2022-10-16T05:27:57;9.85;;;8.00;;
16862;SDS011;52193;48.216;-1.698;2022-10-16T05:30:24;9.73;;;8.43;;
16862;SDS011;52193;48.216;-1.698;2022-10-16T05:32:51;10.95;;;8.95;;
16862;SDS011;52193;48.216;-1.698;2022-10-16T05:35:18;10.60;;;8.98;;
16862;SDS011;52193;48.216;-1.698;2022-10-16T05:37:46;10.03;;;8.37;;
16862;SDS011;52193;48.216;-1.698;2022-10-16T05:40:15;10.77;;;8.25;;
16862;SDS011;52193;48.216;-1.698;2022-10-16T05:42:42;9.40;;;8.30;;
16862;SDS011;52193;48.216;-1.698;2022-10-16T05:45:09;7.55;;;6.75;;
16862;SDS011;52193;48.216;-1.698;2022-10-16T05:47:37;8.57;;;7.00;;
16862;SDS011;52193;48.216;-1.698;2022-10-16T05:50:05;8.13;;;7.30;;
16862;SDS011;52193;48.216;-1.698;2022-10-16T05:52:32;11.30;;;7.35;;
16862;SDS011;52193;48.216;-1.698;2022-10-16T05:54:59;8.35;;;6.70;;
16862;SDS011;52193;48.216;-1.698;2022-10-16T05:57:28;10.60;;;6.80;;
16862;SDS011;52193;48.216;-1.698;2022-10-16T05:59:55;8.55;;;6.93;;
16862;SDS011;52193;48.216;-1.698;2022-10-16T06:02:22;8.95;;;7.00;;
16862;SDS011;52193;48.216;-1.698;2022-10-16T06:04:48;9.00;;;7.10;;
16862;SDS011;52193;48.216;-1.698;2022-10-16T06:07:18;11.50;;;6.75;;
16862;SDS011;52193;48.216;-1.698;2022-10-16T06:09:47;8.50;;;6.65;;
16862;SDS011;52193;48.216;-1.698;2022-10-16T06:12:14;7.80;;;6.55;;
16862;SDS011;52193;48.216;-1.698;2022-10-16T06:14:43;11.38;;;6.97;;
16862;SDS011;52193;48.216;-1.698;2022-10-16T06:17:11;8.23;;;6.68;;
16862;SDS011;52193;48.216;-1.698;2022-10-16T06:19:38;9.63;;;7.25;;
16862;SDS011;52193;48.216;-1.698;2022-10-16T06:22:06;9.60;;;7.13;;
16862;SDS011;52193;48.216;-1.698;2022-10-16T06:24:33;12.38;;;7.93;;
16862;SDS011;52193;48.216;-1.698;2022-10-16T06:27:00;12.73;;;8.30;;
16862;SDS011;52193;48.216;-1.698;2022-10-16T06:29:27;11.13;;;8.52;;
16862;SDS011;52193;48.216;-1.698;2022-10-16T06:31:55;10.15;;;7.72;;
16862;SDS011;52193;48.216;-1.698;2022-10-16T06:34:22;13.98;;;8.85;;
16862;SDS011;52193;48.216;-1.698;2022-10-16T06:36:49;12.15;;;8.60;;
16862;SDS011;52193;48.216;-1.698;2022-10-16T06:39:16;10.65;;;8.82;;
16862;SDS011;52193;48.216;-1.698;2022-10-16T06:41:43;14.43;;;9.82;;
16862;SDS011;52193;48.216;-1.698;2022-10-16T06:44:10;13.73;;;8.95;;
16862;SDS011;52193;48.216;-1.698;2022-10-16T06:46:37;9.95;;;8.68;;
16862;SDS011;52193;48.216;-1.698;2022-10-16T06:49:05;12.27;;;8.98;;
16862;SDS011;52193;48.216;-1.698;2022-10-16T06:51:32;11.38;;;9.00;;
16862;SDS011;52193;48.216;-1.698;2022-10-16T06:54:01;11.25;;;8.75;;
16862;SDS011;52193;48.216;-1.698;2022-10-16T06:56:28;9.65;;;8.20;;
16862;SDS011;52193;48.216;-1.698;2022-10-16T06:58:57;11.35;;;8.60;;
16862;SDS011;52193;48.216;-1.698;2022-10-16T07:01:24;12.63;;;8.90;;
16862;SDS011;52193;48.216;-1.698;2022-10-16T07:03:52;15.43;;;9.27;;
16862;SDS011;52193;48.216;-1.698;2022-10-16T07:06:21;13.70;;;8.57;;
16862;SDS011;52193;48.216;-1.698;2022-10-16T07:08:50;15.13;;;8.50;;
16862;SDS011;52193;48.216;-1.698;2022-10-16T07:11:18;14.15;;;9.63;;
16862;SDS011;52193;48.216;-1.698;2022-10-16T07:13:47;13.68;;;9.30;;
16862;SDS011;52193;48.216;-1.698;2022-10-16T07:16:16;18.73;;;9.70;;
16862;SDS011;52193;48.216;-1.698;2022-10-16T07:18:44;10.73;;;9.63;;
16862;SDS011;52193;48.216;-1.698;2022-10-16T07:21:14;17.23;;;9.93;;
16862;SDS011;52193;48.216;-1.698;2022-10-16T07:23:43;15.70;;;9.63;;
16862;SDS011;52193;48.216;-1.698;2022-10-16T07:26:10;14.10;;;9.73;;
16862;SDS011;52193;48.216;-1.698;2022-10-16T07:28:38;9.20;;;8.40;;
16862;SDS011;52193;48.216;-1.698;2022-10-16T07:31:05;8.50;;;7.50;;
16862;SDS011;52193;48.216;-1.698;2022-10-16T07:33:36;9.75;;;8.95;;
16862;SDS011;52193;48.216;-1.698;2022-10-16T07:36:04;9.50;;;8.57;;
16862;SDS011;52193;48.216;-1.698;2022-10-16T07:38:32;9.25;;;8.45;;
16862;SDS011;52193;48.216;-1.698;2022-10-16T07:41:00;10.40;;;9.38;;
16862;SDS011;52193;48.216;-1.698;2022-10-16T07:43:28;9.10;;;8.20;;
16862;SDS011;52193;48.216;-1.698;2022-10-16T07:45:56;8.35;;;7.60;;
16862;SDS011;52193;48.216;-1.698;2022-10-16T07:48:23;7.80;;;7.10;;
16862;SDS011;52193;48.216;-1.698;2022-10-16T07:50:56;8.35;;;7.65;;
16862;SDS011;52193;48.216;-1.698;2022-10-16T07:53:23;8.13;;;7.43;;
16862;SDS011;52193;48.216;-1.698;2022-10-16T07:55:50;9.02;;;7.03;;
16862;SDS011;52193;48.216;-1.698;2022-10-16T07:58:19;8.13;;;7.43;;
16862;SDS011;52193;48.216;-1.698;2022-10-16T08:00:46;7.90;;;7.20;;
16862;SDS011;52193;48.216;-1.698;2022-10-16T08:03:13;7.97;;;7.18;;
16862;SDS011;52193;48.216;-1.698;2022-10-16T08:05:40;7.18;;;6.57;;
16862;SDS011;52193;48.216;-1.698;2022-10-16T08:08:10;8.05;;;6.78;;
16862;SDS011;52193;48.216;-1.698;2022-10-16T08:10:39;7.70;;;6.90;;
16862;SDS011;52193;48.216;-1.698;2022-10-16T08:13:07;7.30;;;6.60;;
16862;SDS011;52193;48.216;-1.698;2022-10-16T08:15:35;7.40;;;6.72;;
16862;SDS011;52193;48.216;-1.698;2022-10-16T08:18:03;7.70;;;6.50;;
16862;SDS011;52193;48.216;-1.698;2022-10-16T08:20:31;6.45;;;5.70;;
16862;SDS011;52193;48.216;-1.698;2022-10-16T08:22:59;6.35;;;5.40;;
16862;SDS011;52193;48.216;-1.698;2022-10-16T08:25:26;5.97;;;5.43;;
16862;SDS011;52193;48.216;-1.698;2022-10-16T08:27:54;5.85;;;5.15;;
16862;SDS011;52193;48.216;-1.698;2022-10-16T08:30:21;4.60;;;4.20;;
16862;SDS011;52193;48.216;-1.698;2022-10-16T08:32:51;4.32;;;3.95;;
16862;SDS011;52193;48.216;-1.698;2022-10-16T08:35:18;5.70;;;3.35;;
16862;SDS011;52193;48.216;-1.698;2022-10-16T08:37:45;4.10;;;3.15;;
16862;SDS011;52193;48.216;-1.698;2022-10-16T08:40:16;4.50;;;2.90;;
16862;SDS011;52193;48.216;-1.698;2022-10-16T08:46:09;2.30;;;2.10;;
16862;SDS011;52193;48.216;-1.698;2022-10-16T08:48:49;2.75;;;1.92;;
16862;SDS011;52193;48.216;-1.698;2022-10-16T08:51:18;2.20;;;1.80;;
16862;SDS011;52193;48.216;-1.698;2022-10-16T08:53:49;4.47;;;1.80;;
16862;SDS011;52193;48.216;-1.698;2022-10-16T08:56:20;3.42;;;1.70;;
16862;SDS011;52193;48.216;-1.698;2022-10-16T08:58:47;3.05;;;1.88;;
16862;SDS011;52193;48.216;-1.698;2022-10-16T09:01:15;3.58;;;1.90;;
16862;SDS011;52193;48.216;-1.698;2022-10-16T09:03:59;3.28;;;2.08;;
16862;SDS011;52193;48.216;-1.698;2022-10-16T09:06:50;3.17;;;1.92;;
16862;SDS011;52193;48.216;-1.698;2022-10-16T09:09:29;2.15;;;1.60;;
16862;SDS011;52193;48.216;-1.698;2022-10-16T09:12:09;3.17;;;2.10;;
16862;SDS011;52193;48.216;-1.698;2022-10-16T09:14:50;3.90;;;1.90;;
16862;SDS011;52193;48.216;-1.698;2022-10-16T09:17:30;3.17;;;1.67;;
16862;SDS011;52193;48.216;-1.698;2022-10-16T09:20:12;2.17;;;1.50;;
16862;SDS011;52193;48.216;-1.698;2022-10-16T09:22:45;3.35;;;1.60;;
16862;SDS011;52193;48.216;-1.698;2022-10-16T09:25:13;3.00;;;1.75;;
16862;SDS011;52193;48.216;-1.698;2022-10-16T09:27:42;3.85;;;1.50;;
16862;SDS011;52193;48.216;-1.698;2022-10-16T09:30:12;2.87;;;1.70;;
16862;SDS011;52193;48.216;-1.698;2022-10-16T09:32:41;2.90;;;2.00;;
16862;SDS011;52193;48.216;-1.698;2022-10-16T09:35:13;3.50;;;2.00;;
16862;SDS011;52193;48.216;-1.698;2022-10-16T09:37:42;3.35;;;1.80;;
16862;SDS011;52193;48.216;-1.698;2022-10-16T09:40:13;4.43;;;1.98;;
16862;SDS011;52193;48.216;-1.698;2022-10-16T09:42:50;2.77;;;2.20;;
16862;SDS011;52193;48.216;-1.698;2022-10-16T09:45:23;3.22;;;2.13;;
16862;SDS011;52193;48.216;-1.698;2022-10-16T09:47:50;3.42;;;2.03;;
16862;SDS011;52193;48.216;-1.698;2022-10-16T09:50:22;2.07;;;1.40;;
16862;SDS011;52193;48.216;-1.698;2022-10-16T09:53:02;5.53;;;2.75;;
16862;SDS011;52193;48.216;-1.698;2022-10-16T09:55:30;1.88;;;1.40;;
16862;SDS011;52193;48.216;-1.698;2022-10-16T09:57:57;3.15;;;1.80;;
16862;SDS011;52193;48.216;-1.698;2022-10-16T10:00:24;2.37;;;1.43;;
16862;SDS011;52193;48.216;-1.698;2022-10-16T10:02:52;2.33;;;1.25;;
16862;SDS011;52193;48.216;-1.698;2022-10-16T10:05:20;3.05;;;1.55;;
16862;SDS011;52193;48.216;-1.698;2022-10-16T10:07:54;2.72;;;1.58;;
16862;SDS011;52193;48.216;-1.698;2022-10-16T10:10:24;3.30;;;1.27;;
16862;SDS011;52193;48.216;-1.698;2022-10-16T10:12:52;2.25;;;1.20;;
16862;SDS011;52193;48.216;-1.698;2022-10-16T10:15:20;2.63;;;1.30;;
16862;SDS011;52193;48.216;-1.698;2022-10-16T10:17:49;2.33;;;1.20;;
16862;SDS011;52193;48.216;-1.698;2022-10-16T10:20:23;2.72;;;1.30;;
16862;SDS011;52193;48.216;-1.698;2022-10-16T10:22:53;3.28;;;1.27;;
16862;SDS011;52193;48.216;-1.698;2022-10-16T10:25:31;2.50;;;1.48;;
16862;SDS011;52193;48.216;-1.698;2022-10-16T10:28:22;1.95;;;1.02;;
16862;SDS011;52193;48.216;-1.698;2022-10-16T10:31:02;1.65;;;1.10;;
16862;SDS011;52193;48.216;-1.698;2022-10-16T10:33:37;2.72;;;1.10;;
16862;SDS011;52193;48.216;-1.698;2022-10-16T10:36:14;2.00;;;1.10;;
16862;SDS011;52193;48.216;-1.698;2022-10-16T10:38:49;1.80;;;1.00;;
16862;SDS011;52193;48.216;-1.698;2022-10-16T10:41:24;2.85;;;1.00;;
16862;SDS011;52193;48.216;-1.698;2022-10-16T10:44:03;1.80;;;1.13;;
16862;SDS011;52193;48.216;-1.698;2022-10-16T10:46:39;3.75;;;1.60;;
16862;SDS011;52193;48.216;-1.698;2022-10-16T10:49:16;2.22;;;1.27;;
16862;SDS011;52193;48.216;-1.698;2022-10-16T10:51:57;1.85;;;1.23;;
16862;SDS011;52193;48.216;-1.698;2022-10-16T10:54:35;3.85;;;1.42;;
16862;SDS011;52193;48.216;-1.698;2022-10-16T10:57:09;3.67;;;1.70;;
16862;SDS011;52193;48.216;-1.698;2022-10-16T10:59:52;4.20;;;1.70;;
16862;SDS011;52193;48.216;-1.698;2022-10-16T11:02:30;2.95;;;1.40;;
16862;SDS011;52193;48.216;-1.698;2022-10-16T11:05:28;3.55;;;1.75;;
16862;SDS011;52193;48.216;-1.698;2022-10-16T11:08:10;4.90;;;1.77;;
16862;SDS011;52193;48.216;-1.698;2022-10-16T11:10:45;4.07;;;2.63;;
16862;SDS011;52193;48.216;-1.698;2022-10-16T11:13:20;4.28;;;2.30;;
16862;SDS011;52193;48.216;-1.698;2022-10-16T11:15:57;3.95;;;1.75;;
16862;SDS011;52193;48.216;-1.698;2022-10-16T11:18:27;3.75;;;1.88;;
16862;SDS011;52193;48.216;-1.698;2022-10-16T11:21:01;4.70;;;3.03;;
16862;SDS011;52193;48.216;-1.698;2022-10-16T11:23:35;6.90;;;2.55;;
16862;SDS011;52193;48.216;-1.698;2022-10-16T11:26:10;4.38;;;1.90;;
16862;SDS011;52193;48.216;-1.698;2022-10-16T11:28:42;3.53;;;1.80;;
16862;SDS011;52193;48.216;-1.698;2022-10-16T11:31:13;4.15;;;2.03;;
16862;SDS011;52193;48.216;-1.698;2022-10-16T11:33:46;3.23;;;1.90;;
16862;SDS011;52193;48.216;-1.698;2022-10-16T11:36:19;5.53;;;2.27;;
16862;SDS011;52193;48.216;-1.698;2022-10-16T11:38:51;4.65;;;2.58;;
16862;SDS011;52193;48.216;-1.698;2022-10-16T11:41:27;3.75;;;2.22;;
16862;SDS011;52193;48.216;-1.698;2022-10-16T11:44:06;2.92;;;1.60;;
16862;SDS011;52193;48.216;-1.698;2022-10-16T11:46:46;3.33;;;1.90;;
16862;SDS011;52193;48.216;-1.698;2022-10-16T11:49:18;2.30;;;2.00;;
16862;SDS011;52193;48.216;-1.698;2022-10-16T11:51:48;4.22;;;2.08;;
16862;SDS011;52193;48.216;-1.698;2022-10-16T11:54:24;3.70;;;2.38;;
16862;SDS011;52193;48.216;-1.698;2022-10-16T11:57:00;4.20;;;2.40;;
16862;SDS011;52193;48.216;-1.698;2022-10-16T11:59:31;3.25;;;1.70;;
16862;SDS011;52193;48.216;-1.698;2022-10-16T12:02:16;4.75;;;1.90;;
16862;SDS011;52193;48.216;-1.698;2022-10-16T12:04:57;2.97;;;1.77;;
16862;SDS011;52193;48.216;-1.698;2022-10-16T12:07:34;2.33;;;1.52;;
16862;SDS011;52193;48.216;-1.698;2022-10-16T12:10:17;2.20;;;1.65;;
16862;SDS011;52193;48.216;-1.698;2022-10-16T12:12:46;5.53;;;2.60;;
16862;SDS011;52193;48.216;-1.698;2022-10-16T12:15:24;2.50;;;1.70;;
16862;SDS011;52193;48.216;-1.698;2022-10-16T12:17:51;2.33;;;1.70;;
16862;SDS011;52193;48.216;-1.698;2022-10-16T12:20:20;3.15;;;1.90;;
16862;SDS011;52193;48.216;-1.698;2022-10-16T12:22:53;2.47;;;2.17;;
16862;SDS011;52193;48.216;-1.698;2022-10-16T12:25:24;3.30;;;2.03;;
16862;SDS011;52193;48.216;-1.698;2022-10-16T12:28:00;2.95;;;2.10;;
16862;SDS011;52193;48.216;-1.698;2022-10-16T12:30:29;2.97;;;2.17;;
16862;SDS011;52193;48.216;-1.698;2022-10-16T12:32:58;4.70;;;2.17;;
16862;SDS011;52193;48.216;-1.698;2022-10-16T12:35:30;2.38;;;2.03;;
16862;SDS011;52193;48.216;-1.698;2022-10-16T12:38:06;2.72;;;2.00;;
16862;SDS011;52193;48.216;-1.698;2022-10-16T12:40:41;2.20;;;2.00;;
16862;SDS011;52193;48.216;-1.698;2022-10-16T12:43:11;3.10;;;2.10;;
16862;SDS011;52193;48.216;-1.698;2022-10-16T12:45:58;3.33;;;2.13;;
16862;SDS011;52193;48.216;-1.698;2022-10-16T12:48:27;2.40;;;1.77;;
16862;SDS011;52193;48.216;-1.698;2022-10-16T12:50:55;3.27;;;2.23;;
16862;SDS011;52193;48.216;-1.698;2022-10-16T12:53:23;2.15;;;1.83;;
16862;SDS011;52193;48.216;-1.698;2022-10-16T12:55:58;3.55;;;2.50;;
16862;SDS011;52193;48.216;-1.698;2022-10-16T12:58:37;4.25;;;3.83;;
16862;SDS011;52193;48.216;-1.698;2022-10-16T13:01:20;8.75;;;7.95;;
16862;SDS011;52193;48.216;-1.698;2022-10-16T13:04:02;4.63;;;4.22;;
16862;SDS011;52193;48.216;-1.698;2022-10-16T13:06:48;6.07;;;5.47;;
16862;SDS011;52193;48.216;-1.698;2022-10-16T13:09:31;3.05;;;2.50;;
16862;SDS011;52193;48.216;-1.698;2022-10-16T13:12:14;2.08;;;1.80;;
16862;SDS011;52193;48.216;-1.698;2022-10-16T13:14:59;3.55;;;2.10;;
16862;SDS011;52193;48.216;-1.698;2022-10-16T13:17:40;3.05;;;2.25;;
16862;SDS011;52193;48.216;-1.698;2022-10-16T13:20:16;4.07;;;2.05;;
16862;SDS011;52193;48.216;-1.698;2022-10-16T13:22:51;2.53;;;2.17;;
16862;SDS011;52193;48.216;-1.698;2022-10-16T13:25:27;2.80;;;2.15;;
16862;SDS011;52193;48.216;-1.698;2022-10-16T13:28:04;3.50;;;3.20;;
16862;SDS011;52193;48.216;-1.698;2022-10-16T13:30:34;3.55;;;3.25;;
16862;SDS011;52193;48.216;-1.698;2022-10-16T13:33:11;4.38;;;3.97;;
16862;SDS011;52193;48.216;-1.698;2022-10-16T13:35:46;2.93;;;2.63;;
16862;SDS011;52193;48.216;-1.698;2022-10-16T13:38:16;4.45;;;3.00;;
16862;SDS011;52193;48.216;-1.698;2022-10-16T13:40:49;4.88;;;4.38;;
16862;SDS011;52193;48.216;-1.698;2022-10-16T13:43:19;2.90;;;2.60;;
16862;SDS011;52193;48.216;-1.698;2022-10-16T13:45:53;3.10;;;2.40;;
16862;SDS011;52193;48.216;-1.698;2022-10-16T13:48:21;3.42;;;2.80;;
16862;SDS011;52193;48.216;-1.698;2022-10-16T13:50:57;3.53;;;3.08;;
16862;SDS011;52193;48.216;-1.698;2022-10-16T13:53:29;2.85;;;2.60;;
16862;SDS011;52193;48.216;-1.698;2022-10-16T13:55:57;3.30;;;3.00;;
16862;SDS011;52193;48.216;-1.698;2022-10-16T13:58:26;3.00;;;2.80;;
16862;SDS011;52193;48.216;-1.698;2022-10-16T14:00:57;2.50;;;2.30;;
16862;SDS011;52193;48.216;-1.698;2022-10-16T14:03:25;3.15;;;2.60;;
16862;SDS011;52193;48.216;-1.698;2022-10-16T14:05:53;2.78;;;2.58;;
16862;SDS011;52193;48.216;-1.698;2022-10-16T14:08:22;2.80;;;2.60;;
16862;SDS011;52193;48.216;-1.698;2022-10-16T14:10:51;3.17;;;2.70;;
16862;SDS011;52193;48.216;-1.698;2022-10-16T14:13:31;3.60;;;3.27;;
16862;SDS011;52193;48.216;-1.698;2022-10-16T14:16:04;3.15;;;2.95;;
16862;SDS011;52193;48.216;-1.698;2022-10-16T14:18:33;4.28;;;3.88;;
16862;SDS011;52193;48.216;-1.698;2022-10-16T14:21:03;4.45;;;4.05;;
16862;SDS011;52193;48.216;-1.698;2022-10-16T14:23:32;3.40;;;3.10;;
16862;SDS011;52193;48.216;-1.698;2022-10-16T14:26:06;3.33;;;3.13;;
16862;SDS011;52193;48.216;-1.698;2022-10-16T14:28:45;3.50;;;3.20;;
16862;SDS011;52193;48.216;-1.698;2022-10-16T14:31:23;3.25;;;2.92;;
16862;SDS011;52193;48.216;-1.698;2022-10-16T14:33:54;3.70;;;3.40;;
16862;SDS011;52193;48.216;-1.698;2022-10-16T14:36:22;3.13;;;2.72;;
16862;SDS011;52193;48.216;-1.698;2022-10-16T14:38:54;3.55;;;3.25;;
16862;SDS011;52193;48.216;-1.698;2022-10-16T14:41:25;2.60;;;2.40;;
16862;SDS011;52193;48.216;-1.698;2022-10-16T14:43:54;3.10;;;2.80;;
16862;SDS011;52193;48.216;-1.698;2022-10-16T14:46:28;4.30;;;3.90;;
16862;SDS011;52193;48.216;-1.698;2022-10-16T14:48:59;2.70;;;2.50;;
16862;SDS011;52193;48.216;-1.698;2022-10-16T14:51:28;8.10;;;7.40;;
16862;SDS011;52193;48.216;-1.698;2022-10-16T14:53:55;4.75;;;4.38;;
16862;SDS011;52193;48.216;-1.698;2022-10-16T14:56:23;3.60;;;3.30;;